Flight Track Log - Related Links

Times and Time Zones

All times are in EDT time to prevent confusion due to time zone crossing. See the UAL3756 flight status page for this flight to view local times or setup timezone preferences in your user account.

Time Position Orientation Groundspeed Altitude Reporting Facility
EDT Latitude Longitude Course Direction KTS km/h feet Rate Location/Type
Thu 11:32:40 25.7983 -80.2653 318° Northwest 159 295 900  Level Miami Center
Thu 11:34:18 25.8442 -80.1767 60° Northeast 260 481 3.500 2.000 Climbing Miami Center
Thu 11:35:13 25.8953 -80.1317 38° Northeast 263 488 6.000 2.512 Climbing Miami Center
Thu 11:36:27 25.9911 -80.1436 354° North 278 515 8.900 2.373 Climbing Miami Center
Thu 11:37:27 26.0356 -80.2142 305° West 286 529 11.300 1.900 Climbing Miami Center
Thu 11:38:00 26.2184 -80.7684 318° Northwest  Level FlightAware Approximate
Thu 11:38:27 26.0458 -80.3069 277° West 257 476 12.700  Level Miami Center
Thu 11:39:27 26.0600 -80.4136 278° West 302 560 14.200 1.700 Climbing Miami Center
Thu 11:40:27 26.0761 -80.5228 279° West 338 626 16.100 1.750 Climbing Miami Center
Thu 11:41:27 26.1028 -80.6256 286° West 351 650 17.700 1.500 Climbing Miami Center
Thu 11:42:27 26.1953 -80.6839 330° Northwest 346 641 19.100 1.650 Climbing Miami Center
Thu 11:43:27 26.2833 -80.7469 327° Northwest 364 674 21.000 1.250 Climbing Miami Center
Thu 11:44:27 26.3697 -80.8033 330° Northwest 388 719 21.600 850 Climbing Miami Center
Thu 11:45:27 26.4764 -80.8742 329° Northwest 400 740 22.700 1.050 Climbing Miami Center
Thu 11:46:27 26.5789 -80.9425 329° Northwest 413 764 23.700 1.000 Climbing Miami Center
Thu 11:47:27 26.6792 -81.0089 329° Northwest 418 774 24.700 1.000 Climbing Miami Center
Thu 11:48:27 26.7775 -81.0797 327° Northwest 423 784 25.700 1.200 Climbing Miami Center
Thu 11:49:27 26.8797 -81.1486 329° Northwest 423 784 27.100 1.250 Climbing Miami Center
Thu 11:50:27 26.9803 -81.2153 329° Northwest 423 784 28.200 1.050 Climbing Miami Center
Thu 11:51:27 27.0825 -81.2844 329° Northwest 423 784 29.200 1.150 Climbing Miami Center
Thu 11:52:27 27.1806 -81.3511 329° Northwest 423 784 30.500 1.350 Climbing Miami Center
Thu 11:53:27 27.2828 -81.4206 329° Northwest 423 784 31.900 1.700 Climbing Miami Center
Thu 11:54:27 27.3644 -81.4753 329° Northwest 398 737 33.900 1.050 Climbing Miami Center
Thu 11:55:27 27.4564 -81.5372 329° Northwest 380 703 34.000 50 Climbing Miami Center
Thu 11:56:27 27.5564 -81.6069 328° Northwest 380 703 34.000  Level Miami Center
Thu 11:57:27 27.6503 -81.6717 329° Northwest 393 727 34.000  Level Miami Center
Thu 11:58:27 27.7461 -81.7392 328° Northwest 399 739 34.000  Level Miami Center
Thu 12:00:28 27.9456 -81.8706 330° Northwest 405 750 34.000  Level Jacksonville Center
Thu 12:01:28 28.0400 -81.9403 327° Northwest 412 763 34.000  Level Jacksonville Center
Thu 12:02:28 28.1364 -82.0100 327° Northwest 417 772 34.000  Level Jacksonville Center
Thu 12:03:28 28.2372 -82.0797 329° Northwest 417 772 34.000  Level Jacksonville Center
Thu 12:04:28 28.3336 -82.1472 328° Northwest 417 772 34.000  Level Jacksonville Center
Thu 12:05:28 28.4342 -82.2175 328° Northwest 417 772 34.000  Level Jacksonville Center
Thu 12:06:28 28.5303 -82.2853 328° Northwest 417 772 34.000  Level Jacksonville Center
Thu 12:07:28 28.6308 -82.3556 328° Northwest 417 772 34.000  Level Jacksonville Center
Thu 12:08:28 28.7147 -82.4167 327° Northwest 410 760 34.000  Level Jacksonville Center
Thu 12:09:28 28.8131 -82.4850 329° Northwest 410 760 34.000  Level Jacksonville Center
Thu 12:10:28 28.9111 -82.5581 327° Northwest 415 769 34.000  Level Jacksonville Center
Thu 12:11:28 29.0094 -82.6267 329° Northwest 415 769 34.000  Level Jacksonville Center
Thu 12:12:28 29.1078 -82.6978 328° Northwest 415 769 34.000  Level Jacksonville Center
Thu 12:13:28 29.2058 -82.7642 329° Northwest 415 769 34.000  Level Jacksonville Center
Thu 12:14:28 29.3019 -82.8356 327° Northwest 415 769 34.000  Level Jacksonville Center
Thu 12:15:28 29.4000 -82.9044 329° Northwest 415 769 34.000 200 Level Jacksonville Center
Thu 12:16:28 29.5086 -82.9856 327° Northwest 415 769 34.400 750 Climbing Jacksonville Center
Thu 12:17:28 29.6006 -83.0503 329° Northwest 399 739 35.500 800 Climbing Jacksonville Center
Thu 12:18:28 29.7047 -83.1006 337° Northwest 399 739 36.000 250 Climbing Jacksonville Center
Thu 12:19:28 29.8111 -83.1464 340° North 399 739 36.000  Level Jacksonville Center
Thu 12:20:28 29.9092 -83.1944 337° Northwest 399 739 36.000  Level Jacksonville Center
Thu 12:21:28 30.0114 -83.2403 339° North 394 729 36.000  Level Jacksonville Center
Thu 12:22:28 30.1136 -83.2889 338° Northwest 394 729 36.000  Level Jacksonville Center
Thu 12:23:28 30.2114 -83.3325 339° North 389 721 36.000  Level Jacksonville Center
Thu 12:24:28 30.3136 -83.3811 338° Northwest 389 721 36.000  Level Jacksonville Center
Thu 12:25:28 30.4136 -83.4297 337° Northwest 389 721 36.000  Level Jacksonville Center
Thu 12:26:28 30.5136 -83.4761 338° Northwest 389 721 36.000  Level Jacksonville Center
Thu 12:27:28 30.6158 -83.5250 338° Northwest 394 729 36.000  Level Jacksonville Center
Thu 12:28:28 30.6992 -83.5617 339° North 394 729 36.000  Level Jacksonville Center
Thu 12:29:28 30.8136 -83.6183 337° Northwest 388 719 36.000  Level Jacksonville Center
Thu 12:30:28 30.9178 -83.6675 338° Northwest 388 719 36.000  Level Jacksonville Center
Thu 12:31:28 31.0175 -83.7167 337° Northwest 393 727 36.000  Level Jacksonville Center
Thu 12:32:28 31.1197 -83.7636 339° North 393 727 36.000  Level Jacksonville Center
Thu 12:34:53 31.3647 -83.8833 337° Northwest 390 723 36.000  Level Atlanta Center
Thu 12:35:53 31.4669 -83.9342 337° Northwest 390 723 36.000  Level Atlanta Center
Thu 12:36:53 31.5756 -83.9731 343° North 395 732 36.000  Level Atlanta Center
Thu 12:37:53 31.6881 -83.9997 349° North 405 750 36.000  Level Atlanta Center
Thu 12:38:53 31.8031 -84.0242 350° North 410 760 36.000  Level Atlanta Center
Thu 12:39:53 31.9136 -84.0461 350° North 410 760 36.000  Level Atlanta Center
Thu 12:40:53 32.0264 -84.0708 349° North 410 760 36.000  Level Atlanta Center
Thu 12:41:53 32.1389 -84.0953 350° North 410 760 36.000  Level Atlanta Center
Thu 12:42:53 32.2539 -84.1222 349° North 410 760 36.000  Level Atlanta Center
Thu 12:43:53 32.3686 -84.1469 350° North 410 760 36.000  Level Atlanta Center
Thu 12:44:53 32.4792 -84.1719 349° North 410 760 36.000  Level Atlanta Center
Thu 12:45:53 32.5836 -84.1967 349° North 410 760 36.000  Level Atlanta Center
Thu 12:46:53 32.6961 -84.2214 350° North 410 760 36.000  Level Atlanta Center
Thu 12:47:53 32.8192 -84.2489 349° North 410 760 36.000  Level Atlanta Center
Thu 12:48:53 32.9342 -84.2789 348° North 410 760 36.000  Level Atlanta Center
Thu 12:49:53 33.0364 -84.3014 350° North 410 760 36.000  Level Atlanta Center
Thu 12:50:53 33.1511 -84.3267 350° North 410 760 36.000  Level Atlanta Center
Thu 12:51:53 33.2636 -84.3519 349° North 410 760 36.000  Level Atlanta Center
Thu 12:52:53 33.3764 -84.3772 349° North 415 769 36.000  Level Atlanta Center
Thu 12:53:53 33.4889 -84.4050 348° North 410 760 36.000  Level Atlanta Center
Thu 12:54:53 33.6017 -84.4303 349° North 410 760 36.000  Level Atlanta Center
Thu 12:55:53 33.7225 -84.4483 353° North 416 771 36.000  Level Atlanta Center
Thu 12:56:53 33.8372 -84.4614 355° North 416 771 36.000  Level Atlanta Center
Thu 12:57:53 33.9522 -84.4744 355° North 416 771 36.000  Level Atlanta Center
Thu 12:58:53 34.0689 -84.4903 354° North 416 771 36.000  Level Atlanta Center
Thu 12:59:53 34.1961 -84.5033 355° North 451 835 36.000  Level Atlanta Center
Thu 13:00:53 34.3108 -84.5167 355° North 435 806 36.000  Level Atlanta Center
Thu 13:01:53 34.4319 -84.5325 354° North 430 797 36.000  Level Atlanta Center
Thu 13:02:53 34.5467 -84.5456 355° North 419 776 36.000  Level Atlanta Center
Thu 13:03:53 34.6717 -84.5642 353° North 420 777 36.000  Level Atlanta Center
Thu 13:04:53 34.7886 -84.5775 355° North 413 764 36.000  Level Atlanta Center
Thu 13:05:53 34.9053 -84.5933 354° North 413 764 36.000  Level Atlanta Center
Thu 13:06:53 35.0222 -84.6069 355° North 413 764 36.000  Level Atlanta Center
Thu 13:07:53 35.1389 -84.6203 355° North 413 764 36.000  Level Atlanta Center
Thu 13:08:53 35.2558 -84.6339 355° North 419 776 36.000  Level Atlanta Center
Thu 13:09:53 35.3725 -84.6500 354° North 419 776 36.000  Level Atlanta Center
Thu 13:10:53 35.4892 -84.6636 355° North 419 776 36.000  Level Atlanta Center
Thu 13:11:53 35.6061 -84.6772 355° North 424 785 36.000  Level Atlanta Center
Thu 13:12:53 35.7250 -84.6911 355° North 424 785 36.000  Level Atlanta Center
Thu 13:13:53 35.8417 -84.7047 355° North 424 785 36.000  Level Atlanta Center
Thu 13:16:01 36.0917 -84.7378 354° North 424 785 36.000  Level Indianapolis Center
Thu 13:17:03 36.2081 -84.7522 354° North 422 782 36.000  Level Indianapolis Center
Thu 13:18:05 36.3250 -84.7678 354° North 424 785 36.000  Level Indianapolis Center
Thu 13:19:07 36.4436 -84.7708 359° North 430 797 36.000  Level Indianapolis Center
Thu 13:20:09 36.5672 -84.7361 13° North 455 843 36.000  Level Indianapolis Center
Thu 13:21:11 36.7169 -84.6919 13° North 459 850 36.000  Level Indianapolis Center
Thu 13:22:13 36.8411 -84.6556 13° North 460 851 36.000  Level Indianapolis Center
Thu 13:23:15 36.9656 -84.6189 13° North 460 851 36.000  Level Indianapolis Center
Thu 13:24:17 37.0867 -84.5828 13° North 462 856 36.000  Level Indianapolis Center
Thu 13:25:19 37.2317 -84.5392 13° North 461 855 36.000  Level Indianapolis Center
Thu 13:26:21 37.3564 -84.5033 13° North 458 848 36.000  Level Indianapolis Center
Thu 13:27:23 37.4817 -84.4656 13° North 460 851 36.000  Level Indianapolis Center
Thu 13:28:25 37.6103 -84.4347 11° North 468 867 36.000  Level Indianapolis Center
Thu 13:29:27 37.7244 -84.4631 349° North 418 774 36.000  Level Indianapolis Center
Thu 13:30:29 37.8344 -84.5103 341° North 415 769 36.000  Level Indianapolis Center
Thu 13:31:30 37.9419 -84.5578 341° North 410 760 36.000  Level Indianapolis Center
Thu 13:32:32 38.0711 -84.6100 342° North 414 766 36.000  Level Indianapolis Center
Thu 13:33:34 38.1803 -84.6561 342° North 413 764 36.000  Level Indianapolis Center
Thu 13:34:36 38.2897 -84.7042 341° North 412 763 36.000  Level Indianapolis Center
Thu 13:35:38 38.3717 -84.7928 320° Northwest 387 716 36.000  Level Indianapolis Center
Thu 13:36:40 38.4517 -84.8836 318° Northwest 383 710 36.000  Level Indianapolis Center
Thu 13:37:42 38.5317 -84.9733 319° Northwest 380 703 36.000  Level Indianapolis Center
Thu 13:38:44 38.6233 -85.0772 318° Northwest 375 695 36.000  Level Indianapolis Center
Thu 13:39:45 38.6950 -85.1539 320° Northwest 376 697 36.000  Level Indianapolis Center
Thu 13:40:47 38.7858 -85.2542 319° Northwest 367 679 36.000 -532 Level Indianapolis Center
Thu 13:41:49 38.8775 -85.3189 331° Northwest 378 700 34.900 -1.258 Descending Indianapolis Center
Thu 13:42:51 38.9881 -85.3439 350° North 398 737 33.400 -1.452 Descending Indianapolis Center
Thu 13:43:53 39.1003 -85.3675 351° North 405 750 31.900 -1.452 Descending Indianapolis Center
Thu 13:44:55 39.2158 -85.3933 350° North 416 771 30.400 -919 Descending Indianapolis Center
Thu 13:45:57 39.3311 -85.4186 350° North 419 776 30.000 -532 Descending Indianapolis Center
Thu 13:46:59 39.4453 -85.4439 350° North 413 764 29.300 -968 Descending Indianapolis Center
Thu 13:48:01 39.5739 -85.4717 351° North 402 745 28.000 -1.306 Descending Indianapolis Center
Thu 13:49:03 39.6844 -85.4969 350° North 402 745 26.600 -968 Descending Indianapolis Center
Thu 13:50:05 39.7911 -85.5211 350° North 392 726 26.000 -290 Descending Indianapolis Center
Thu 13:51:07 39.8969 -85.5439 351° North 386 715 26.000  Level Indianapolis Center
Thu 13:52:09 40.0011 -85.5681 350° North 381 705 26.000  Level Indianapolis Center
Thu 13:53:11 40.1261 -85.5961 350° North 388 719 26.000 -148 Level Indianapolis Center
Thu 13:54:11 40.2356 -85.6183 351° North 397 735 25.700 -885 Descending Chicago Center
Thu 13:55:13 40.3436 -85.6433 350° North 394 729 24.200 -823 Descending Chicago Center
Thu 13:56:15 40.4519 -85.6681 350° North 393 727 24.000 -290 Descending Chicago Center
Thu 13:57:17 40.5508 -85.7025 345° North 360 666 23.600 -919 Descending Chicago Center
Thu 13:58:19 40.6422 -85.7428 342° North 346 641 22.100 -1.452 Descending Chicago Center
Thu 13:59:21 40.7339 -85.7847 341° North 359 665 20.600 -1.016 Descending Chicago Center
Thu 14:00:23 40.8506 -85.8381 341° North 367 679 20.000 -290 Descending Chicago Center
Thu 14:01:25 40.9469 -85.8800 342° North 365 676 20.000  Level Chicago Center
Thu 14:02:27 41.0186 -85.9656 318° Northwest 354 655 20.000  Level Chicago Center
Thu 14:03:29 41.0744 -86.0708 305° West 349 647 20.000  Level Chicago Center
Thu 14:04:31 41.1300 -86.1767 305° West 349 647 20.000 -532 Level Chicago Center
Thu 14:05:33 41.1869 -86.2819 306° West 350 649 18.900 -1.065 Descending Chicago Center
Thu 14:06:35 41.2397 -86.3867 304° West 344 637 17.800 -1.403 Descending Chicago Center
Thu 14:07:37 41.3147 -86.4953 313° West 335 621 16.000 -1.597 Descending Chicago Center
Thu 14:08:39 41.3806 -86.5806 316° Northwest 331 613 14.500 -1.306 Descending Chicago Center
Thu 14:09:41 41.4442 -86.6628 316° Northwest 323 599 13.300 -1.161 Descending Chicago Center
Thu 14:10:43 41.5142 -86.7264 326° Northwest 317 587 12.100 -629 Descending Chicago Center
Thu 14:11:45 41.5981 -86.7664 340° North 324 600 12.000 -194 Descending Chicago Center
Thu 14:12:47 41.7000 -86.7994 346° North 327 605 11.700 -484 Descending Chicago Center
Thu 14:13:49 41.7764 -86.8483 334° Northwest 315 583 11.000 -339 Descending Chicago Center
Thu 14:14:51 41.8400 -86.9250 318° Northwest 309 573 11.000  Level Chicago Center
Thu 14:15:53 41.8939 -87.0097 311° West 305 565 11.000 -387 Level Chicago Center
Thu 14:16:55 41.9267 -87.1156 293° West 307 568 10.200 -677 Descending Chicago Center
Thu 14:17:57 41.9586 -87.2125 294° West 290 538 9.600 -1.161 Descending Chicago Center
Thu 14:18:59 41.9833 -87.3144 288° West 247 457 7.800 -1.500 Descending Chicago Center
Thu 14:19:41 41.9833 -87.3833 270° West 256 475 7.000 -471 Descending Chicago TRACON
Thu 14:20:41 41.9833 -87.4833 270° West 249 462 7.000 -650 Level Chicago TRACON
Thu 14:21:41 41.9833 -87.5833 270° West 258 478 5.700 -1.450 Descending Chicago TRACON
Thu 14:22:41 41.9833 -87.6667 270° West 231 428 4.100 -1.350 Descending Chicago TRACON
Thu 14:23:41 41.9833 -87.7333 270° West 179 332 3.000 -992 Descending Chicago TRACON
Thu 14:24:42 41.9833 -87.8000 270° West 156 290 2.100 -793 Descending Chicago TRACON
Thu 14:25:42 41.9833 -87.8500 270° West 131 243 1.400 -700 Descending Chicago TRACON
Thu 14:28:00 41.9667 -87.9000 270° West  Level FlightAware Approximate

Login

Don't have an account? Register now (free) for customized features, flight alerts, and more!